Time;durP1;ratioP1;P1;durP2;ratioP2;P2;SDS_P1;SDS_P2;PMS_P1;PMS_P2;Temp;Humidity;BMP_temperature;BMP_pressure;BME280_temperature;BME280_humidity;BME280_pressure;Samples;Min_cycle;Max_cycle;Signal;HPM_P1;HPM_P2
2020/11/28 00:06:44;;;;;;;55.3;37;;;;;;;1.49;88.32813;99167.86;;;;
2020/11/28 00:16:41;;;;;;;43.8;31.3;;;;;;;1.52;88.41113;99163.95;;;;
2020/11/28 00:26:39;;;;;;;41.4;32.3;;;;;;;1.33;88.42773;99141.23;;;;
2020/11/28 00:36:37;;;;;;;43.6;28.2;;;;;;;1.47;88.30078;99155.87;;;;
2020/11/28 00:46:35;;;;;;;24.4;20.7;;;;;;;1.37;87.97461;99159.13;;;;
2020/11/28 00:56:35;;;;;;;39.6;25.6;;;;;;;1.41;88.27832;99154.16;;;;
2020/11/28 01:06:31;;;;;;;44.7;29.3;;;;;;;1.35;88.15625;99149.79;;;;
2020/11/28 01:16:28;;;;;;;36.5;25.6;;;;;;;1.38;88.07324;99154.63;;;;
2020/11/28 01:26:26;;;;;;;44;28.6;;;;;;;1.19;88;99153.14;;;;
2020/11/28 01:36:24;;;;;;;32.7;25;;;;;;;1.24;87.66992;99153.27;;;;
2020/11/28 01:46:22;;;;;;;35.1;22.4;;;;;;;1.07;88.41602;99136.44;;;;
2020/11/28 01:56:20;;;;;;;25.6;19.1;;;;;;;1.17;87.80957;99147.27;;;;
2020/11/28 02:06:18;;;;;;;30.3;19.9;;;;;;;1.19;87.73633;99139.87;;;;
2020/11/28 02:16:15;;;;;;;46.7;27.4;;;;;;;1.14;88.13379;99131.81;;;;
2020/11/28 02:26:13;;;;;;;33.1;27.3;;;;;;;1.19;88.17578;99118.63;;;;
2020/11/28 02:36:11;;;;;;;41;27.6;;;;;;;1.2;88.33398;99112.29;;;;
2020/11/28 02:46:09;;;;;;;38.2;29.1;;;;;;;1.21;88.70996;99109.41;;;;
2020/11/28 02:56:07;;;;;;;35.6;22.5;;;;;;;1.36;88.41113;99119.52;;;;
2020/11/28 03:06:05;;;;;;;46.6;31;;;;;;;1.42;88.37793;99118.6;;;;
2020/11/28 03:16:02;;;;;;;46.7;31.9;;;;;;;1.31;88.97363;99125.55;;;;
2020/11/28 03:26:00;;;;;;;32.2;24.6;;;;;;;1.28;89.12012;99114.59;;;;
2020/11/28 03:35:58;;;;;;;32.8;25.2;;;;;;;1.35;88.9375;99115.27;;;;
2020/11/28 03:45:56;;;;;;;32.9;24.4;;;;;;;1.29;89.18848;99102.91;;;;
2020/11/28 03:55:54;;;;;;;27;20.8;;;;;;;1.27;89.37109;99091.73;;;;
2020/11/28 04:05:51;;;;;;;34.7;26.4;;;;;;;1.31;89.31445;99074.3;;;;
2020/11/28 04:15:49;;;;;;;31;23.7;;;;;;;1.3;89.25586;99070.02;;;;
2020/11/28 04:25:47;;;;;;;30.5;21.2;;;;;;;1.29;88.91309;99076.36;;;;
2020/11/28 04:35:45;;;;;;;36.2;24.7;;;;;;;1.27;89.06348;99081.11;;;;
2020/11/28 04:45:43;;;;;;;35.9;26;;;;;;;1.29;88.86914;99081.67;;;;
2020/11/28 04:55:41;;;;;;;36.2;26.5;;;;;;;1.31;88.6543;99087.57;;;;
2020/11/28 05:05:38;;;;;;;32.6;21.8;;;;;;;1.34;88.80273;99100.38;;;;
2020/11/28 05:15:36;;;;;;;39.8;24.9;;;;;;;1.31;88.39063;99103.5;;;;
2020/11/28 05:25:35;;;;;;;29.5;23;;;;;;;1.33;88.68066;99119.98;;;;
2020/11/28 05:35:32;;;;;;;36.6;25.8;;;;;;;1.27;88.6123;99102.35;;;;
2020/11/28 05:45:30;;;;;;;46;28.2;;;;;;;1.29;88.7041;99113.53;;;;
2020/11/28 05:55:27;;;;;;;34.6;24.6;;;;;;;1.25;88.80664;99109.76;;;;
2020/11/28 06:05:25;;;;;;;30.5;24.3;;;;;;;1.27;88.23828;99107.66;;;;
2020/11/28 06:15:23;;;;;;;39.4;25.2;;;;;;;1.19;88.61621;99110.67;;;;
2020/11/28 06:25:21;;;;;;;39;25.5;;;;;;;1.16;88.64355;99119.1;;;;
2020/11/28 06:35:19;;;;;;;37.7;25.2;;;;;;;1.22;88.19629;99118.97;;;;
2020/11/28 06:45:16;;;;;;;47.4;30.7;;;;;;;1.19;88.55176;99119.45;;;;
2020/11/28 06:55:15;;;;;;;37.8;27.5;;;;;;;1.24;88.39844;99111.59;;;;
2020/11/28 07:05:12;;;;;;;37.8;27.3;;;;;;;1.32;88.32617;99124.48;;;;
2020/11/28 07:15:10;;;;;;;42.5;33.9;;;;;;;1.27;88.45898;99132.37;;;;
2020/11/28 07:25:07;;;;;;;44.5;31.2;;;;;;;1.41;88.33398;99138.22;;;;
2020/11/28 07:35:05;;;;;;;56.2;34;;;;;;;1.51;87.97949;99138.42;;;;
2020/11/28 07:45:03;;;;;;;54.2;35.4;;;;;;;1.46;88.01465;99144.44;;;;
2020/11/28 07:55:01;;;;;;;57;39.9;;;;;;;1.51;88.08984;99143.73;;;;
2020/11/28 08:04:59;;;;;;;50.1;37.9;;;;;;;1.45;88.44043;99147.34;;;;
2020/11/28 08:14:59;;;;;;;55.4;36.2;;;;;;;1.46;88.66406;99147.09;;;;
2020/11/28 08:24:55;;;;;;;54.6;36.5;;;;;;;1.48;88.35742;99146.87;;;;
2020/11/28 08:34:52;;;;;;;57.6;36.1;;;;;;;1.57;87.79297;99147.29;;;;
2020/11/28 08:44:50;;;;;;;64;38.6;;;;;;;1.81;87.52246;99152.3;;;;
2020/11/28 08:54:48;;;;;;;64.2;38.8;;;;;;;1.89;87.08887;99165.22;;;;
2020/11/28 09:04:46;;;;;;;62.3;40.7;;;;;;;1.81;87.24707;99170.9;;;;
2020/11/28 09:14:44;;;;;;;74.5;42.7;;;;;;;1.94;86.91016;99167.17;;;;
2020/11/28 09:24:42;;;;;;;58.3;42.2;;;;;;;1.99;87.02051;99149.45;;;;
2020/11/28 09:34:40;;;;;;;57.2;41;;;;;;;2.21;86.15918;99159.41;;;;
2020/11/28 09:44:37;;;;;;;53.4;39.8;;;;;;;2.32;85.65137;99139.94;;;;
2020/11/28 09:54:36;;;;;;;46.4;40.9;;;;;;;2.47;85.07617;99138.32;;;;
2020/11/28 10:04:36;;;;;;;65.5;43.2;;;;;;;2.49;85.06836;99132.77;;;;
2020/11/28 10:14:31;;;;;;;52.5;42.7;;;;;;;2.6;84.37109;99131.08;;;;
2020/11/28 10:24:29;;;;;;;59.8;45.3;;;;;;;2.62;84.22168;99124.46;;;;
2020/11/28 10:34:27;;;;;;;57.8;40;;;;;;;2.76;83.99219;99119.61;;;;
2020/11/28 10:44:25;;;;;;;60.9;44.4;;;;;;;2.73;83.12402;99104.13;;;;
2020/11/28 10:54:23;;;;;;;58.7;41.6;;;;;;;2.88;82.55859;99115.8;;;;
2020/11/28 11:04:21;;;;;;;50.9;38.2;;;;;;;2.94;82.09277;99112.17;;;;
2020/11/28 11:14:19;;;;;;;50.1;39.2;;;;;;;3.05;81.91504;99124.55;;;;
2020/11/28 11:24:17;;;;;;;41.3;35.2;;;;;;;3.16;80.39453;99116.73;;;;
2020/11/28 11:34:15;;;;;;;37;31.7;;;;;;;3.15;80.70313;99117.77;;;;
2020/11/28 11:44:13;;;;;;;39.4;29.4;;;;;;;2.93;79.11426;99118.55;;;;
2020/11/28 11:54:11;;;;;;;57.7;36.2;;;;;;;2.89;80.58789;99105.95;;;;
2020/11/28 12:04:09;;;;;;;46.4;31.8;;;;;;;2.88;79.53613;99118.45;;;;
2020/11/28 12:14:07;;;;;;;36.3;29.5;;;;;;;2.73;79.39648;99114.78;;;;
2020/11/28 12:24:05;;;;;;;38.2;29.4;;;;;;;2.48;81.99316;99112.53;;;;
2020/11/28 12:34:03;;;;;;;44;36.6;;;;;;;2.51;82.57422;99112.05;;;;
2020/11/28 12:44:01;;;;;;;55.2;40.2;;;;;;;2.57;83.04883;99089;;;;
2020/11/28 12:53:59;;;;;;;46;35.9;;;;;;;2.78;82.79199;99083.7;;;;
2020/11/28 13:03:57;;;;;;;41.2;34;;;;;;;2.9;81.89746;99079.11;;;;
2020/11/28 13:13:55;;;;;;;45.4;35.1;;;;;;;2.69;82.37695;99082.52;;;;
2020/11/28 13:23:53;;;;;;;44.1;33.7;;;;;;;2.52;82.56543;99079.08;;;;
2020/11/28 13:33:51;;;;;;;42.2;29.3;;;;;;;2.42;82.21289;99092.22;;;;
2020/11/28 13:43:49;;;;;;;55.6;40.6;;;;;;;2.41;82.58887;99086.09;;;;
2020/11/28 13:53:47;;;;;;;47.9;31.4;;;;;;;2.35;83.18457;99088.92;;;;
2020/11/28 14:03:45;;;;;;;54.6;41.6;;;;;;;2.16;84.12891;99103.48;;;;
2020/11/28 14:13:43;;;;;;;42.8;32.5;;;;;;;1.99;84.53906;99104.27;;;;
2020/11/28 14:23:41;;;;;;;45.1;33.1;;;;;;;1.97;84.74512;99111.69;;;;
2020/11/28 14:33:38;;;;;;;35.4;31.5;;;;;;;1.88;84.83594;99106.98;;;;
2020/11/28 14:43:36;;;;;;;48.3;35.2;;;;;;;1.83;85.35645;99105.05;;;;
2020/11/28 14:53:37;;;;;;;51.9;37.9;;;;;;;1.84;85.63379;99103.98;;;;
2020/11/28 15:03:32;;;;;;;54.5;40.6;;;;;;;1.84;85.93164;99111.95;;;;
2020/11/28 15:13:30;;;;;;;61.9;44.1;;;;;;;1.88;85.68457;99117.6;;;;
2020/11/28 15:23:28;;;;;;;53.1;43.3;;;;;;;1.85;85.41504;99110.92;;;;
2020/11/28 15:33:26;;;;;;;65.5;46.9;;;;;;;1.81;85.68164;99112.44;;;;
2020/11/28 15:43:23;;;;;;;78.2;59.4;;;;;;;1.83;85.875;99109.55;;;;
2020/11/28 15:53:21;;;;;;;51.4;41.9;;;;;;;1.78;85.97363;99118.23;;;;
2020/11/28 16:03:19;;;;;;;57.3;42;;;;;;;1.86;85.6377;99130.34;;;;
2020/11/28 16:13:17;;;;;;;52.9;41.2;;;;;;;1.99;85.41016;99132.7;;;;
2020/11/28 16:23:15;;;;;;;60.6;47.4;;;;;;;1.95;85.69922;99128.9;;;;
2020/11/28 16:33:13;;;;;;;56.5;44.5;;;;;;;1.83;86.05078;99136.13;;;;
2020/11/28 16:43:10;;;;;;;64;45.8;;;;;;;1.72;86.33594;99139.63;;;;
2020/11/28 16:53:08;;;;;;;51.6;40.9;;;;;;;1.68;86.25195;99138.48;;;;
2020/11/28 17:03:06;;;;;;;65.1;44.1;;;;;;;1.65;85.61621;99138.96;;;;
2020/11/28 17:13:04;;;;;;;45.1;33;;;;;;;1.63;83.87109;99151.69;;;;
2020/11/28 17:23:02;;;;;;;29.6;26.4;;;;;;;1.54;82.06934;99148.58;;;;
2020/11/28 17:33:00;;;;;;;58.7;40;;;;;;;1.43;82.97363;99154.72;;;;
2020/11/28 17:42:57;;;;;;;45;33.1;;;;;;;1.41;83.45508;99154.16;;;;
2020/11/28 17:52:55;;;;;;;39.6;33.3;;;;;;;1.33;82.44727;99157.97;;;;
2020/11/28 18:02:53;;;;;;;50.7;37;;;;;;;1.36;83.36719;99154.03;;;;
2020/11/28 18:12:51;;;;;;;35.3;27.8;;;;;;;1.37;83.35742;99158.31;;;;
2020/11/28 18:22:48;;;;;;;43.6;29.2;;;;;;;1.31;82.00293;99161.91;;;;
2020/11/28 18:32:46;;;;;;;34.4;23.4;;;;;;;1.34;80.12207;99174.72;;;;
2020/11/28 18:42:46;;;;;;;19;15.7;;;;;;;1.26;78.46289;99175.06;;;;
2020/11/28 18:52:42;;;;;;;27.2;19.1;;;;;;;1.23;79.40723;99181.66;;;;
2020/11/28 19:02:39;;;;;;;30.5;21.9;;;;;;;1.18;80.57715;99186.06;;;;
2020/11/28 19:12:37;;;;;;;31.1;19.7;;;;;;;1.17;79.88965;99195.05;;;;
2020/11/28 19:22:37;;;;;;;24.3;14.6;;;;;;;1.03;78.7959;99194.48;;;;
2020/11/28 19:32:33;;;;;;;17.3;12.5;;;;;;;0.89;78.75977;99201.86;;;;
2020/11/28 19:42:30;;;;;;;15.8;12.6;;;;;;;0.94;79.19824;99194;;;;
2020/11/28 19:52:28;;;;;;;32.2;23.6;;;;;;;0.94;79.77148;99195.84;;;;
2020/11/28 20:02:26;;;;;;;33.3;21.1;;;;;;;0.91;80.61621;99199.77;;;;
2020/11/28 20:12:23;;;;;;;31.9;25.8;;;;;;;0.81;80.7832;99199.53;;;;
2020/11/28 20:22:21;;;;;;;46.9;31.5;;;;;;;0.74;81.50781;99201.48;;;;
2020/11/28 20:32:19;;;;;;;34;24.5;;;;;;;0.63;80.95703;99189.01;;;;
2020/11/28 20:42:16;;;;;;;46.2;30.4;;;;;;;0.42;81.80957;99198.31;;;;
2020/11/28 20:52:14;;;;;;;32.4;21.3;;;;;;;0.4;81.68359;99196.92;;;;
2020/11/28 21:02:12;;;;;;;81.2;44.4;;;;;;;0.41;81.33496;99195.9;;;;
2020/11/28 21:12:09;;;;;;;38.7;28.2;;;;;;;0.35;82.03809;99197.59;;;;
2020/11/28 21:22:07;;;;;;;35.2;26.9;;;;;;;0.33;81;99189.08;;;;
2020/11/28 21:32:04;;;;;;;34.7;25;;;;;;;0.3;81.58789;99186.06;;;;
2020/11/28 21:42:02;;;;;;;40.7;30.6;;;;;;;0.2;82.82422;99186.63;;;;
2020/11/28 21:52:00;;;;;;;34.1;28.1;;;;;;;0.07;83.00684;99178.83;;;;
2020/11/28 22:01:57;;;;;;;45.9;30.5;;;;;;;0.2;83;99181.32;;;;
2020/11/28 22:11:55;;;;;;;52.8;34.9;;;;;;;0.2;83.33887;99188.46;;;;
2020/11/28 22:21:53;;;;;;;45.3;31.2;;;;;;;0.09;83.7793;99179.44;;;;
2020/11/28 22:31:51;;;;;;;59.6;35.6;;;;;;;0.07;82.65527;99173.53;;;;
2020/11/28 22:41:48;;;;;;;63.8;36.4;;;;;;;0.1;82.84766;99159.86;;;;
2020/11/28 22:51:46;;;;;;;44.3;30;;;;;;;0.04;83.38672;99171.34;;;;
2020/11/28 23:01:43;;;;;;;37.4;27.1;;;;;;;0.06;82.89551;99145.44;;;;
2020/11/28 23:11:41;;;;;;;35.7;26;;;;;;;0.02;83.0625;99138.16;;;;
2020/11/28 23:21:39;;;;;;;45.8;28;;;;;;;-0.04;83.27148;99151.29;;;;
2020/11/28 23:31:37;;;;;;;40.5;31.2;;;;;;;-0.07;83.73828;99151.72;;;;
2020/11/28 23:41:34;;;;;;;42.9;30.3;;;;;;;-0.19;83.31836;99137.63;;;;
2020/11/28 23:51:31;;;;;;;50.1;29;;;;;;;-0.22;83.43262;99137.27;;;;
